Vihari Weather



Vihari's Current Weather

Temprature 33.312o scattered clouds

scattered clouds

Rain: 0 %

Min Temprature33.312o
Max Temprature33.312o
Humidity16
Wind Speed2.31 m/h
Sun Rise06:13:51
Sun Set17:37:33
Current Time: 18-Oct-2019 16:49:56
Lat/Lon: 30.03, 72.35




Vihari's Geo Location



Vihari's Weather Forecast

Time Overall Temp Min Temp Max Temp Humidity Wind Speed Rain
18-Oct-2019 (Fri)
17:00:00 light rain 30.040 30.040 33.312 16 2.31 m/h 6 %
20:00:00 scattered clouds 22.940 22.940 25.393 30 2.34 m/h 0 %
23:00:00 scattered clouds 21.740 21.740 23.369 41 5.5 m/h 0 %
19-Oct-2019 (Sat)
02:00:00 clear sky 21.140 21.140 21.958 45 3.57 m/h 0 %
05:00:00 clear sky 22.278 22.278 22.278 47 5.44 m/h 0 %
08:00:00 clear sky 24.872 24.872 24.872 38 3.5 m/h 0 %
11:00:00 clear sky 31.930 31.930 31.930 26 3.91 m/h 0 %
14:00:00 clear sky 35.393 35.393 35.393 18 3.02 m/h 0 %
17:00:00 clear sky 33.224 33.224 33.224 16 2.83 m/h 0 %
20:00:00 few clouds 25.731 25.731 25.731 28 2.61 m/h 0 %
23:00:00 clear sky 24.704 24.704 24.704 29 2.98 m/h 0 %
20-Oct-2019 (Sun)
02:00:00 clear sky 22.707 22.707 22.707 31 2.51 m/h 0 %
05:00:00 clear sky 21.358 21.358 21.358 34 2.26 m/h 0 %
08:00:00 few clouds 26.594 26.594 26.594 24 2.56 m/h 0 %
11:00:00 clear sky 34.420 34.420 34.420 15 2.66 m/h 0 %
14:00:00 clear sky 36.953 36.953 36.953 11 1.39 m/h 0 %
17:00:00 few clouds 33.481 33.481 33.481 12 0.66 m/h 0 %
20:00:00 scattered clouds 26.493 26.493 26.493 22 1.77 m/h 0 %
23:00:00 few clouds 25.289 25.289 25.289 27 3.17 m/h 0 %
21-Oct-2019 (Mon)
02:00:00 clear sky 23.536 23.536 23.536 29 2.31 m/h 0 %
05:00:00 clear sky 21.477 21.477 21.477 33 1.8 m/h 0 %
08:00:00 clear sky 26.112 26.112 26.112 22 2.74 m/h 0 %
11:00:00 clear sky 35.355 35.355 35.355 11 3.63 m/h 0 %
14:00:00 clear sky 37.038 37.038 37.038 9 2.83 m/h 0 %
17:00:00 clear sky 33.474 33.474 33.474 10 1.01 m/h 0 %
20:00:00 clear sky 26.523 26.523 26.523 18 1.73 m/h 0 %
23:00:00 clear sky 25.564 25.564 25.564 20 2.51 m/h 0 %
22-Oct-2019 (Tue)
02:00:00 clear sky 22.552 22.552 22.552 22 0.73 m/h 0 %
05:00:00 clear sky 21.406 21.406 21.406 24 0.68 m/h 0 %
08:00:00 clear sky 26.921 26.921 26.921 17 1.85 m/h 0 %
11:00:00 clear sky 35.425 35.425 35.425 10 2.75 m/h 0 %
14:00:00 clear sky 37.309 37.309 37.309 8 3.25 m/h 0 %
17:00:00 clear sky 33.389 33.389 33.389 9 1.9 m/h 0 %
20:00:00 clear sky 25.750 25.750 25.750 18 2.13 m/h 0 %
23:00:00 clear sky 24.722 24.722 24.722 19 2.19 m/h 0 %
23-Oct-2019 (Wed)
02:00:00 clear sky 23.385 23.385 23.385 20 1.06 m/h 0 %
05:00:00 clear sky 22.988 22.988 22.988 20 2.18 m/h 0 %
08:00:00 clear sky 26.143 26.143 26.143 18 1.84 m/h 0 %
11:00:00 clear sky 35.544 35.544 35.544 9 3.8 m/h 0 %
14:00:00 clear sky 37.461 37.461 37.461 7 4.56 m/h 0 %

Famous Cities (61)